createdAt,value
2022-10-19T00:04:51.789Z,9.47
2022-10-19T00:09:53.331Z,9.54
2022-10-19T00:14:55.101Z,9.60
2022-10-19T00:19:56.715Z,9.65
2022-10-19T00:24:58.539Z,9.69
2022-10-19T00:30:00.338Z,9.74
2022-10-19T00:35:03.668Z,9.79
2022-10-19T00:40:05.944Z,9.81
2022-10-19T00:45:15.584Z,9.81
2022-10-19T00:50:17.769Z,9.84
2022-10-19T00:55:19.450Z,9.88
2022-10-19T01:00:21.461Z,9.90
2022-10-19T01:05:23.596Z,9.88
2022-10-19T01:10:54.736Z,9.89
2022-10-19T01:16:16.604Z,9.84
2022-10-19T01:21:29.326Z,9.84
2022-10-19T01:27:04.076Z,9.84
2022-10-19T01:32:10.281Z,9.85
2022-10-19T01:37:45.316Z,9.87
2022-10-19T01:42:51.711Z,9.88
2022-10-19T01:47:55.641Z,9.91
2022-10-19T01:52:59.077Z,9.97
2022-10-19T01:58:08.355Z,9.98
2022-10-19T02:03:12.900Z,9.96
2022-10-19T02:08:20.923Z,9.97
2022-10-19T02:13:23.312Z,9.98
2022-10-19T02:18:33.646Z,9.97
2022-10-19T02:23:35.654Z,9.97
2022-10-19T02:28:38.217Z,9.98
2022-10-19T02:33:39.881Z,9.97
2022-10-19T02:38:41.767Z,9.97
2022-10-19T02:43:47.907Z,9.99
2022-10-19T02:48:51.666Z,9.99
2022-10-19T02:53:53.153Z,9.98
2022-10-19T02:58:55.015Z,9.96
2022-10-19T03:03:58.732Z,9.98
2022-10-19T03:09:00.431Z,9.98
2022-10-19T03:14:02.092Z,9.98
2022-10-19T03:19:03.880Z,9.98
2022-10-19T03:24:05.906Z,9.96
2022-10-19T03:29:08.058Z,9.93
2022-10-19T03:34:09.607Z,9.92
2022-10-19T03:39:13.713Z,9.91
2022-10-19T03:44:15.508Z,9.89
2022-10-19T03:49:17.311Z,9.87
2022-10-19T03:54:19.927Z,9.84
2022-10-19T03:59:24.306Z,9.81
2022-10-19T04:04:25.842Z,9.72
2022-10-19T04:09:27.640Z,9.70
2022-10-19T04:14:32.484Z,9.69
2022-10-19T04:19:41.073Z,9.71
2022-10-19T04:24:42.576Z,9.69
2022-10-19T04:29:44.175Z,9.71
2022-10-19T04:34:45.836Z,9.72
2022-10-19T04:39:47.334Z,9.71
2022-10-19T04:44:48.805Z,9.72
2022-10-19T04:49:50.386Z,9.71
2022-10-19T04:54:52.001Z,9.71
2022-10-19T04:59:53.942Z,9.70
2022-10-19T05:04:55.765Z,9.70
2022-10-19T05:09:57.235Z,9.69
2022-10-19T05:14:58.980Z,9.67
2022-10-19T05:20:00.827Z,9.75
2022-10-19T05:25:02.371Z,9.74
2022-10-19T05:30:04.902Z,9.73
2022-10-19T05:35:06.672Z,9.73
2022-10-19T05:40:09.074Z,9.77
2022-10-19T05:45:10.843Z,9.76
2022-10-19T05:50:12.386Z,9.76
2022-10-19T05:55:14.065Z,9.73
2022-10-19T06:00:15.780Z,9.71
2022-10-19T06:05:17.363Z,9.77
2022-10-19T06:10:19.384Z,9.78
2022-10-19T06:15:20.917Z,9.83
2022-10-19T06:20:22.572Z,9.86
2022-10-19T06:25:24.707Z,9.86
2022-10-19T06:30:26.571Z,9.89
2022-10-19T06:35:28.481Z,9.90
2022-10-19T06:40:30.292Z,9.97
2022-10-19T06:45:35.740Z,10.01
2022-10-19T06:50:37.604Z,10.02
2022-10-19T06:55:39.105Z,10.09
2022-10-19T07:00:40.747Z,10.20
2022-10-19T07:05:42.337Z,10.25
2022-10-19T07:10:43.870Z,10.31
2022-10-19T07:15:45.610Z,10.35
2022-10-19T07:20:54.938Z,10.43
2022-10-19T07:26:01.663Z,10.53
2022-10-19T07:31:09.597Z,10.60
2022-10-19T07:36:13.045Z,10.66
2022-10-19T07:41:16.823Z,10.79
2022-10-19T07:46:23.482Z,10.85
2022-10-19T07:51:26.141Z,10.90
2022-10-19T07:56:28.216Z,10.91
2022-10-19T08:01:35.435Z,10.99
2022-10-19T08:06:38.255Z,11.20
2022-10-19T08:11:40.029Z,11.29
2022-10-19T08:16:44.338Z,11.38
2022-10-19T08:21:47.237Z,11.50
2022-10-19T08:26:53.886Z,11.62
2022-10-19T08:31:55.425Z,11.73
2022-10-19T08:36:57.226Z,11.84
2022-10-19T08:48:39.216Z,11.97
2022-10-19T08:53:46.289Z,11.95
2022-10-19T08:58:53.692Z,12.07
2022-10-19T09:04:13.528Z,12.17
2022-10-19T09:09:18.540Z,12.34
2022-10-19T09:14:49.469Z,12.45
2022-10-19T09:19:52.083Z,12.49
2022-10-19T09:25:13.834Z,12.61
2022-10-19T09:30:17.850Z,12.63
2022-10-19T09:35:41.547Z,12.64
2022-10-19T09:40:43.897Z,12.72
2022-10-19T09:45:51.534Z,12.94
2022-10-19T09:50:59.417Z,12.99
2022-10-19T09:56:06.815Z,13.15
2022-10-19T10:01:39.894Z,12.88
2022-10-19T10:06:47.788Z,13.00
2022-10-19T10:11:50.955Z,13.17
2022-10-19T10:17:15.187Z,13.44
2022-10-19T10:22:27.605Z,13.42
2022-10-19T10:27:38.870Z,13.61
2022-10-19T10:32:49.138Z,14.10
2022-10-19T10:50:57.403Z,13.63
2022-10-19T10:55:58.982Z,13.73
2022-10-19T11:01:07.552Z,13.95
2022-10-19T11:06:10.056Z,14.51
2022-10-19T11:11:24.908Z,15.01
2022-10-19T11:16:40.717Z,15.45
2022-10-19T11:22:03.762Z,15.81
2022-10-19T11:27:35.019Z,15.89
2022-10-19T11:32:39.961Z,15.79
2022-10-19T11:38:17.447Z,15.38
2022-10-19T11:43:43.578Z,14.97
2022-10-19T11:49:36.137Z,14.90
2022-10-19T11:55:02.294Z,15.13
2022-10-19T12:00:15.460Z,14.66
2022-10-19T12:05:54.201Z,14.71
2022-10-19T12:11:27.544Z,14.77
2022-10-19T12:16:37.041Z,14.46
2022-10-19T12:21:43.072Z,14.91
2022-10-19T12:26:46.085Z,14.62
2022-10-19T12:31:50.017Z,14.42
2022-10-19T12:37:15.113Z,14.19
2022-10-19T12:42:33.854Z,14.60
2022-10-19T12:47:35.888Z,14.57
2022-10-19T12:52:49.521Z,14.41
2022-10-19T12:58:00.228Z,14.37
2022-10-19T13:03:16.222Z,14.31
2022-10-19T13:08:30.540Z,14.56
2022-10-19T13:14:02.631Z,14.67
2022-10-19T13:19:13.753Z,14.62
2022-10-19T13:24:24.260Z,14.38
2022-10-19T13:29:28.877Z,14.24
2022-10-19T13:34:30.656Z,14.15
2022-10-19T13:39:39.258Z,14.14
2022-10-19T13:44:45.439Z,14.06
2022-10-19T13:50:01.317Z,13.92
2022-10-19T13:55:15.172Z,13.72
2022-10-19T14:00:18.414Z,13.72
2022-10-19T14:05:31.962Z,13.70
2022-10-19T14:10:56.209Z,13.59
2022-10-19T14:16:00.269Z,13.48
2022-10-19T14:21:04.483Z,13.41
2022-10-19T14:26:08.047Z,13.29
2022-10-19T14:31:17.512Z,13.17
2022-10-19T14:36:22.522Z,13.13
2022-10-19T14:41:27.966Z,13.07
2022-10-19T14:46:34.192Z,12.99
2022-10-19T14:51:44.534Z,12.92
2022-10-19T14:56:55.884Z,12.84
2022-10-19T15:02:02.897Z,12.70
2022-10-19T15:07:17.157Z,12.62
2022-10-19T15:12:26.965Z,12.52
2022-10-19T15:17:29.824Z,12.55
2022-10-19T15:22:31.401Z,12.40
2022-10-19T15:27:38.773Z,12.34
2022-10-19T15:32:40.293Z,12.24
2022-10-19T15:37:44.512Z,12.09
2022-10-19T15:42:48.805Z,11.94
2022-10-19T15:48:10.135Z,11.81
2022-10-19T15:53:11.667Z,11.63
2022-10-19T15:58:14.333Z,11.45
2022-10-19T16:03:16.354Z,11.30
2022-10-19T16:08:17.790Z,11.19
2022-10-19T16:13:19.242Z,11.00
2022-10-19T16:18:20.755Z,10.79
2022-10-19T16:23:22.362Z,10.56
2022-10-19T16:28:24.201Z,10.30
2022-10-19T16:33:25.959Z,10.04
2022-10-19T16:38:28.985Z,9.82
2022-10-19T16:43:31.663Z,9.62
2022-10-19T16:48:34.179Z,9.44
2022-10-19T16:53:38.103Z,9.27
2022-10-19T16:58:40.623Z,9.12
2022-10-19T17:03:43.471Z,8.95
2022-10-19T17:09:23.680Z,8.83
2022-10-19T17:14:12.122Z,8.74
2022-10-19T17:19:13.936Z,8.61
2022-10-19T17:24:21.668Z,8.50
2022-10-19T17:29:23.982Z,8.39
2022-10-19T17:34:27.226Z,8.31
2022-10-19T17:39:29.980Z,8.21
2022-10-19T17:44:32.077Z,8.07
2022-10-19T17:49:33.942Z,7.96
2022-10-19T17:54:43.666Z,7.89
2022-10-19T17:59:56.066Z,7.82
2022-10-19T18:04:57.674Z,7.74
2022-10-19T18:09:59.153Z,7.68
2022-10-19T18:15:01.810Z,7.59
2022-10-19T18:20:04.150Z,7.54
2022-10-19T18:25:06.132Z,7.52
2022-10-19T18:30:09.164Z,7.54
2022-10-19T18:35:10.895Z,7.55
2022-10-19T18:40:12.438Z,7.56
2022-10-19T18:45:14.067Z,7.66
2022-10-19T18:50:17.384Z,7.85
2022-10-19T18:55:19.034Z,7.94
2022-10-19T19:00:20.608Z,7.93
2022-10-19T19:05:22.438Z,7.86
2022-10-19T19:10:24.130Z,7.86
2022-10-19T19:15:25.683Z,7.77
2022-10-19T19:20:27.165Z,7.69
2022-10-19T19:25:28.631Z,7.69
2022-10-19T19:30:30.140Z,7.65
2022-10-19T19:35:31.720Z,7.60
2022-10-19T19:40:33.219Z,7.58
2022-10-19T19:45:35.375Z,7.52
2022-10-19T19:50:38.161Z,7.55
2022-10-19T19:55:39.693Z,7.56
2022-10-19T20:00:44.440Z,7.44
2022-10-19T20:05:45.909Z,7.40
2022-10-19T20:10:47.545Z,7.44
2022-10-19T20:15:48.997Z,7.47
2022-10-19T20:20:50.588Z,7.44
2022-10-19T20:25:53.494Z,7.39
2022-10-19T20:31:03.669Z,7.36
2022-10-19T20:36:09.773Z,7.37
2022-10-19T20:41:11.301Z,7.38
2022-10-19T20:46:15.775Z,7.36
2022-10-19T20:51:30.620Z,7.35
2022-10-19T20:56:36.173Z,7.29
2022-10-19T21:01:39.502Z,7.26
2022-10-19T21:06:43.978Z,7.24
2022-10-19T21:11:47.489Z,7.21
2022-10-19T21:16:49.254Z,7.22
2022-10-19T21:21:55.380Z,7.18
2022-10-19T21:26:56.922Z,7.19
2022-10-19T21:31:58.476Z,7.10
2022-10-19T21:37:00.233Z,7.14
2022-10-19T21:42:02.530Z,7.08
2022-10-19T21:47:04.047Z,7.12
2022-10-19T21:52:05.616Z,7.13
2022-10-19T21:57:07.233Z,7.07
2022-10-19T22:02:08.702Z,7.02
2022-10-19T22:07:10.257Z,6.95
2022-10-19T22:12:11.762Z,6.88
2022-10-19T22:17:13.342Z,6.85
2022-10-19T22:22:14.811Z,6.76
2022-10-19T22:27:16.355Z,6.72
2022-10-19T22:32:18.667Z,6.73
2022-10-19T22:37:20.120Z,6.68
2022-10-19T22:42:21.591Z,6.63
2022-10-19T22:47:23.131Z,6.53
2022-10-19T22:52:24.678Z,6.53
2022-10-19T22:57:26.201Z,6.66
2022-10-19T23:02:29.148Z,6.63
2022-10-19T23:07:30.691Z,6.60
2022-10-19T23:12:32.462Z,6.59
2022-10-19T23:17:34.336Z,6.54
2022-10-19T23:22:35.948Z,6.53
2022-10-19T23:27:37.768Z,6.46
2022-10-19T23:32:39.667Z,6.36
2022-10-19T23:37:41.148Z,6.37
2022-10-19T23:42:42.833Z,6.35
2022-10-19T23:47:44.565Z,6.32
2022-10-19T23:57:52.565Z,6.26
